Stanley, North Dakota
Current Conditions -  °F | °C
As of 3:55 AM on Sunday 23 Nov 2014 (Local Time) from K08D Reporting Station
Overcast Overcast  
Wind Chill: 22°   Ceiling: 2300
Heat Index: 34°   Visibility: 10mi
Dew Point: 34°   Wind: 20mph
Humidity: 100%   Direction: 280°W
Pressure: 29.31"   Gusts: 25mph
Location:  48.32°N, 102.39°W
Report Text: K08D 230955Z AUTO 28017G22KT 10SM OVC023 01/01 A2931 RMK AO2
Loading
Personal Weather Stations






























Interactive Weather Map New forecast layout! Learn more

10-Day Weather Forecast

Advertisements
Track Severe Weather on mobile